createdAt,value
2019-01-04T00:00:30.775Z,18.48
2019-01-04T00:01:30.702Z,18.46
2019-01-04T00:02:30.649Z,18.47
2019-01-04T00:03:30.674Z,18.47
2019-01-04T00:04:31.000Z,18.44
2019-01-04T00:05:30.448Z,18.44
2019-01-04T00:06:30.454Z,18.44
2019-01-04T00:07:30.883Z,18.43
2019-01-04T00:08:30.275Z,18.44
2019-01-04T00:09:30.229Z,18.43
2019-01-04T00:10:30.272Z,18.41
2019-01-04T00:11:30.367Z,18.42
2019-01-04T00:12:30.367Z,18.41
2019-01-04T00:13:30.333Z,18.4
2019-01-04T00:14:30.346Z,18.39
2019-01-04T00:15:30.536Z,18.4
2019-01-04T00:16:30.409Z,18.4
2019-01-04T00:17:30.107Z,18.4
2019-01-04T00:18:30.306Z,18.41
2019-01-04T00:19:30.560Z,18.37
2019-01-04T00:20:30.694Z,18.4
2019-01-04T00:21:30.762Z,18.37
2019-01-04T00:22:30.367Z,18.37
2019-01-04T00:23:30.684Z,18.37
2019-01-04T00:24:30.148Z,18.35
2019-01-04T00:25:30.486Z,18.34
2019-01-04T00:26:30.563Z,18.33
2019-01-04T00:27:30.226Z,18.35
2019-01-04T00:28:30.250Z,18.35
2019-01-04T00:29:30.165Z,18.33
2019-01-04T00:30:30.261Z,18.32
2019-01-04T00:31:30.277Z,18.3
2019-01-04T00:32:30.351Z,18.32
2019-01-04T00:33:30.493Z,18.34
2019-01-04T00:34:30.287Z,18.32
2019-01-04T00:35:30.202Z,18.3
2019-01-04T00:36:30.785Z,18.3
2019-01-04T00:37:30.200Z,18.28
2019-01-04T00:38:30.693Z,18.28
2019-01-04T00:39:30.782Z,18.29
2019-01-04T00:40:30.451Z,18.28
2019-01-04T00:41:30.564Z,18.29
2019-01-04T00:42:30.522Z,18.28
2019-01-04T00:43:30.666Z,18.26
2019-01-04T00:44:30.289Z,18.26
2019-01-04T00:45:31.042Z,18.26
2019-01-04T00:46:30.360Z,18.27
2019-01-04T00:47:30.210Z,18.26
2019-01-04T00:48:30.566Z,18.23
2019-01-04T00:49:30.692Z,18.24
2019-01-04T00:50:31.089Z,18.24
2019-01-04T00:51:30.356Z,18.23
2019-01-04T00:52:30.419Z,18.22
2019-01-04T00:53:30.250Z,18.22
2019-01-04T00:54:30.324Z,18.21
2019-01-04T00:55:30.084Z,18.23
2019-01-04T00:56:30.605Z,18.22
2019-01-04T00:57:30.168Z,18.19
2019-01-04T00:58:30.742Z,18.2
2019-01-04T00:59:30.189Z,18.18
2019-01-04T01:00:30.747Z,18.19
2019-01-04T01:01:31.062Z,18.19
2019-01-04T01:02:30.798Z,18.19
2019-01-04T01:03:30.788Z,18.18
2019-01-04T01:04:30.858Z,18.19
2019-01-04T01:05:30.699Z,18.17
2019-01-04T01:06:31.290Z,18.15
2019-01-04T01:07:30.601Z,18.18
2019-01-04T01:08:31.007Z,18.17
2019-01-04T01:09:30.719Z,18.14
2019-01-04T01:10:30.213Z,18.14
2019-01-04T01:11:30.644Z,18.12
2019-01-04T01:12:30.178Z,18.13
2019-01-04T01:13:30.416Z,18.11
2019-01-04T01:14:30.759Z,18.13
2019-01-04T01:15:30.468Z,18.12
2019-01-04T01:16:30.587Z,18.12
2019-01-04T01:17:30.379Z,18.13
2019-01-04T01:18:30.254Z,18.12
2019-01-04T01:19:30.344Z,18.09
2019-01-04T01:20:30.185Z,18.12
2019-01-04T01:21:30.580Z,18.09
2019-01-04T01:22:30.194Z,18.12
2019-01-04T01:23:30.111Z,18.08
2019-01-04T01:24:30.717Z,18.09
2019-01-04T01:25:30.097Z,18.09
2019-01-04T01:26:30.628Z,18.07
2019-01-04T01:27:30.337Z,18.07
2019-01-04T01:28:31.088Z,18.09
2019-01-04T01:29:30.713Z,18.08
2019-01-04T01:30:30.656Z,18.07
2019-01-04T01:31:30.470Z,18.06
2019-01-04T01:32:30.131Z,18.05
2019-01-04T01:33:30.134Z,18.06
2019-01-04T01:34:30.629Z,18.07
2019-01-04T01:35:30.105Z,18.05
2019-01-04T01:36:30.262Z,18.05
2019-01-04T01:37:30.410Z,18.04
2019-01-04T01:38:30.208Z,18.03
2019-01-04T01:39:30.508Z,18.04
2019-01-04T01:40:30.052Z,18.04
2019-01-04T01:41:30.391Z,18.04
2019-01-04T01:42:30.606Z,18.02
2019-01-04T01:43:30.887Z,18.03
2019-01-04T01:44:30.764Z,18.03
2019-01-04T01:45:30.097Z,18
2019-01-04T01:46:30.156Z,17.99
2019-01-04T01:47:30.129Z,18
2019-01-04T01:48:30.257Z,18
2019-01-04T01:49:30.319Z,17.99
2019-01-04T01:50:30.379Z,17.99
2019-01-04T01:51:30.242Z,17.98
2019-01-04T01:52:30.306Z,17.97
2019-01-04T01:53:30.110Z,17.97
2019-01-04T01:54:30.641Z,17.99
2019-01-04T01:55:30.251Z,17.96
2019-01-04T01:56:30.287Z,17.96
2019-01-04T01:57:30.739Z,17.97
2019-01-04T01:58:30.131Z,17.96
2019-01-04T01:59:30.650Z,17.97
2019-01-04T02:00:30.325Z,17.94
2019-01-04T02:01:30.273Z,17.95
2019-01-04T02:02:30.380Z,17.95
2019-01-04T02:03:30.182Z,17.94
2019-01-04T02:04:30.904Z,17.95
2019-01-04T02:05:30.019Z,17.95
2019-01-04T02:06:30.387Z,17.92
2019-01-04T02:07:30.266Z,17.94
2019-01-04T02:08:30.141Z,17.92
2019-01-04T02:09:30.324Z,17.93
2019-01-04T02:10:30.002Z,17.92
2019-01-04T02:11:30.206Z,17.93
2019-01-04T02:12:30.183Z,17.94
2019-01-04T02:13:30.250Z,17.91
2019-01-04T02:14:30.291Z,17.9
2019-01-04T02:15:30.249Z,17.9
2019-01-04T02:16:30.216Z,17.91
2019-01-04T02:17:30.466Z,17.9
2019-01-04T02:18:30.189Z,17.91
2019-01-04T02:19:30.365Z,17.89
2019-01-04T02:20:30.132Z,17.91
2019-01-04T02:21:30.427Z,17.88
2019-01-04T02:22:30.206Z,17.89
2019-01-04T02:23:30.993Z,17.89
2019-01-04T02:24:30.529Z,17.88
2019-01-04T02:25:30.307Z,17.88
2019-01-04T02:26:30.390Z,17.89
2019-01-04T02:27:30.225Z,17.89
2019-01-04T02:28:30.470Z,17.88
2019-01-04T02:29:30.881Z,17.88
2019-01-04T02:30:30.799Z,17.88
2019-01-04T02:31:30.508Z,17.87
2019-01-04T02:32:30.383Z,17.85
2019-01-04T02:33:30.515Z,17.83
2019-01-04T02:34:30.482Z,17.85
2019-01-04T02:35:30.219Z,17.85
2019-01-04T02:36:30.343Z,17.87
2019-01-04T02:37:31.142Z,17.83
2019-01-04T02:38:30.140Z,17.83
2019-01-04T02:39:30.365Z,17.82
2019-01-04T02:40:30.691Z,17.85
2019-01-04T02:41:30.399Z,17.83
2019-01-04T02:42:30.240Z,17.81
2019-01-04T02:43:30.763Z,17.84
2019-01-04T02:44:30.275Z,17.83
2019-01-04T02:45:31.142Z,17.82
2019-01-04T02:46:30.329Z,17.82
2019-01-04T02:47:30.729Z,17.81
2019-01-04T02:48:30.068Z,17.8
2019-01-04T02:49:30.430Z,17.8
2019-01-04T02:50:30.200Z,17.82
2019-01-04T02:51:30.119Z,17.81
2019-01-04T02:52:30.203Z,17.8
2019-01-04T02:53:30.422Z,17.8
2019-01-04T02:54:30.315Z,17.79
2019-01-04T02:55:30.345Z,17.79
2019-01-04T02:56:30.415Z,17.79
2019-01-04T02:57:31.135Z,17.79
2019-01-04T02:58:30.666Z,17.79
2019-01-04T02:59:30.251Z,17.78
2019-01-04T03:00:30.626Z,17.77
2019-01-04T03:01:30.050Z,17.77
2019-01-04T03:02:30.076Z,17.77
2019-01-04T03:03:30.263Z,17.77
2019-01-04T03:04:30.130Z,17.76
2019-01-04T03:05:30.133Z,17.76
2019-01-04T03:06:30.352Z,17.76
2019-01-04T03:07:30.535Z,17.76
2019-01-04T03:08:30.985Z,17.75
2019-01-04T03:09:30.286Z,17.74
2019-01-04T03:10:30.591Z,17.73
2019-01-04T03:11:30.343Z,17.74
2019-01-04T03:12:30.453Z,17.73
2019-01-04T03:13:30.660Z,17.75
2019-01-04T03:14:30.506Z,17.72
2019-01-04T03:15:30.093Z,17.73
2019-01-04T03:16:30.810Z,17.73
2019-01-04T03:17:30.188Z,17.73
2019-01-04T03:18:30.176Z,17.7
2019-01-04T03:19:30.344Z,17.72
2019-01-04T03:20:30.437Z,17.7
2019-01-04T03:21:30.326Z,17.72
2019-01-04T03:22:30.950Z,17.7
2019-01-04T03:23:30.579Z,17.7
2019-01-04T03:24:30.755Z,17.73
2019-01-04T03:25:30.323Z,17.7
2019-01-04T03:26:30.469Z,17.65
2019-01-04T03:27:30.296Z,17.69
2019-01-04T03:28:30.567Z,17.69
2019-01-04T03:29:30.286Z,17.69
2019-01-04T03:30:30.507Z,17.68
2019-01-04T03:31:30.329Z,17.68
2019-01-04T03:32:30.048Z,17.69
2019-01-04T03:33:30.636Z,17.7
2019-01-04T03:34:31.390Z,17.69
2019-01-04T03:35:30.195Z,17.67
2019-01-04T03:36:30.233Z,17.68
2019-01-04T03:37:30.189Z,17.65
2019-01-04T03:38:30.686Z,17.68
2019-01-04T03:39:30.293Z,17.68
2019-01-04T03:40:30.200Z,17.67
2019-01-04T03:41:30.177Z,17.66
2019-01-04T03:42:30.597Z,17.65
2019-01-04T03:43:30.107Z,17.63
2019-01-04T03:44:30.046Z,17.64
2019-01-04T03:45:30.074Z,17.65
2019-01-04T03:46:30.418Z,17.63
2019-01-04T03:47:30.073Z,17.63
2019-01-04T03:48:30.279Z,17.65
2019-01-04T03:49:30.303Z,17.63
2019-01-04T03:50:30.080Z,17.64
2019-01-04T03:51:30.293Z,17.64
2019-01-04T03:52:30.013Z,17.63
2019-01-04T03:53:30.329Z,17.62
2019-01-04T03:54:30.335Z,17.62
2019-01-04T03:55:30.160Z,17.62
2019-01-04T03:56:30.369Z,17.62
2019-01-04T03:57:30.078Z,17.6
2019-01-04T03:58:30.278Z,17.61
2019-01-04T03:59:30.374Z,17.63
2019-01-04T04:00:30.053Z,17.61
2019-01-04T04:01:30.624Z,17.6
2019-01-04T04:02:30.140Z,17.62
2019-01-04T04:03:30.379Z,17.59
2019-01-04T04:04:30.103Z,17.61
2019-01-04T04:05:30.045Z,17.59
2019-01-04T04:06:30.350Z,17.61
2019-01-04T04:07:30.359Z,17.58
2019-01-04T04:08:30.307Z,17.58
2019-01-04T04:09:30.284Z,17.6
2019-01-04T04:10:30.134Z,17.58
2019-01-04T04:11:31.104Z,17.59
2019-01-04T04:12:30.146Z,17.58
2019-01-04T04:13:30.187Z,17.56
2019-01-04T04:14:30.065Z,17.58
2019-01-04T04:15:30.065Z,17.56
2019-01-04T04:16:30.602Z,17.56
2019-01-04T04:17:30.077Z,17.55
2019-01-04T04:18:30.300Z,17.55
2019-01-04T04:19:29.902Z,17.55
2019-01-04T04:20:30.188Z,17.58
2019-01-04T04:21:30.401Z,17.55
2019-01-04T04:22:30.679Z,17.54
2019-01-04T04:23:30.584Z,17.55
2019-01-04T04:24:29.972Z,17.55
2019-01-04T04:25:30.627Z,17.53
2019-01-04T04:26:30.488Z,17.53
2019-01-04T04:27:30.303Z,17.52
2019-01-04T04:28:30.801Z,17.52
2019-01-04T04:29:30.214Z,17.55
2019-01-04T04:30:30.514Z,17.52
2019-01-04T04:31:31.117Z,17.53
2019-01-04T04:32:30.167Z,17.53
2019-01-04T04:33:30.137Z,17.53
2019-01-04T04:34:30.467Z,17.5
2019-01-04T04:35:30.352Z,17.52
2019-01-04T04:36:30.274Z,17.52
2019-01-04T04:37:30.383Z,17.52
2019-01-04T04:38:30.226Z,17.51
2019-01-04T04:39:29.949Z,17.51
2019-01-04T04:40:30.956Z,17.5
2019-01-04T04:41:30.191Z,17.52
2019-01-04T04:42:30.002Z,17.51
2019-01-04T04:43:30.459Z,17.5
2019-01-04T04:44:30.255Z,17.51
2019-01-04T04:45:30.056Z,17.5
2019-01-04T04:46:30.331Z,17.5
2019-01-04T04:47:30.232Z,17.51
2019-01-04T04:48:30.467Z,17.5
2019-01-04T04:49:30.225Z,17.52
2019-01-04T04:50:30.136Z,17.53
2019-01-04T04:51:30.147Z,17.52
2019-01-04T04:52:29.978Z,17.54
2019-01-04T04:53:30.692Z,17.55
2019-01-04T04:54:30.299Z,17.56
2019-01-04T04:55:30.264Z,17.58
2019-01-04T04:56:30.209Z,17.59
2019-01-04T04:57:30.006Z,17.58
2019-01-04T04:58:30.487Z,17.6
2019-01-04T04:59:30.381Z,17.59
2019-01-04T05:00:30.216Z,17.59
2019-01-04T05:01:30.294Z,17.63
2019-01-04T05:02:30.182Z,17.64
2019-01-04T05:03:30.163Z,17.64
2019-01-04T05:04:30.116Z,17.67
2019-01-04T05:05:30.006Z,17.67
2019-01-04T05:06:30.528Z,17.69
2019-01-04T05:07:30.203Z,17.69
2019-01-04T05:08:30.191Z,17.7
2019-01-04T05:09:30.331Z,17.72
2019-01-04T05:10:30.111Z,17.7
2019-01-04T05:11:30.081Z,17.76
2019-01-04T05:12:29.844Z,17.76
2019-01-04T05:13:30.124Z,17.77
2019-01-04T05:14:30.143Z,17.76
2019-01-04T05:15:30.427Z,17.8
2019-01-04T05:16:30.282Z,17.8
2019-01-04T05:17:31.401Z,17.82
2019-01-04T05:18:30.227Z,17.84
2019-01-04T05:19:29.951Z,17.84
2019-01-04T05:20:30.326Z,17.89
2019-01-04T05:21:30.257Z,17.89
2019-01-04T05:22:30.313Z,17.9
2019-01-04T05:23:30.098Z,17.91
2019-01-04T05:24:30.111Z,17.93
2019-01-04T05:25:30.130Z,17.95
2019-01-04T05:26:30.194Z,17.96
2019-01-04T05:27:30.382Z,17.99
2019-01-04T05:28:30.236Z,18
2019-01-04T05:29:30.204Z,18.02
2019-01-04T05:30:30.032Z,18
2019-01-04T05:31:30.272Z,18.07
2019-01-04T05:32:30.483Z,18.06
2019-01-04T05:33:30.065Z,18.08
2019-01-04T05:34:30.181Z,18.09
2019-01-04T05:35:30.462Z,18.12
2019-01-04T05:36:30.185Z,18.1
2019-01-04T05:37:29.950Z,18.13
2019-01-04T05:38:30.045Z,18.13
2019-01-04T05:39:30.253Z,18.15
2019-01-04T05:40:30.206Z,18.18
2019-01-04T05:41:30.242Z,18.19
2019-01-04T05:42:29.937Z,18.2
2019-01-04T05:43:30.107Z,18.22
2019-01-04T05:44:30.123Z,18.23
2019-01-04T05:45:30.134Z,18.23
2019-01-04T05:46:30.053Z,18.24
2019-01-04T05:47:30.242Z,18.27
2019-01-04T05:48:30.019Z,18.29
2019-01-04T05:49:30.150Z,18.29
2019-01-04T05:50:29.988Z,18.32
2019-01-04T05:51:30.256Z,18.33
2019-01-04T05:52:30.183Z,18.3
2019-01-04T05:53:30.236Z,18.33
2019-01-04T05:54:30.242Z,18.37
2019-01-04T05:55:30.085Z,18.36
2019-01-04T05:56:30.185Z,18.37
2019-01-04T05:57:29.917Z,18.39
2019-01-04T05:58:29.967Z,18.4
2019-01-04T05:59:31.080Z,18.4
2019-01-04T06:00:30.453Z,18.42
2019-01-04T06:01:30.343Z,18.44
2019-01-04T06:02:30.685Z,18.42
2019-01-04T06:03:30.063Z,18.44
2019-01-04T06:04:30.197Z,18.43
2019-01-04T06:05:30.109Z,18.47
2019-01-04T06:06:30.392Z,18.47
2019-01-04T06:07:30.684Z,18.5
2019-01-04T06:08:29.966Z,18.5
2019-01-04T06:09:30.124Z,18.5
2019-01-04T06:10:30.517Z,18.52
2019-01-04T06:11:30.469Z,18.51
2019-01-04T06:12:30.306Z,18.52
2019-01-04T06:13:30.065Z,18.54
2019-01-04T06:14:30.149Z,18.55
2019-01-04T06:15:30.259Z,18.57
2019-01-04T06:16:30.059Z,18.56
2019-01-04T06:17:30.355Z,18.59
2019-01-04T06:18:30.043Z,18.59
2019-01-04T06:19:30.375Z,18.59
2019-01-04T06:20:31.037Z,18.61
2019-01-04T06:21:30.060Z,18.62
2019-01-04T06:22:30.519Z,18.63
2019-01-04T06:23:30.892Z,18.63
2019-01-04T06:24:29.996Z,18.64
2019-01-04T06:25:30.558Z,18.65
2019-01-04T06:26:30.082Z,18.66
2019-01-04T06:27:30.978Z,18.66
2019-01-04T06:28:30.168Z,18.69
2019-01-04T06:29:30.869Z,18.7
2019-01-04T06:30:30.170Z,18.72
2019-01-04T06:31:30.330Z,18.72
2019-01-04T06:32:30.079Z,18.73
2019-01-04T06:33:30.367Z,18.73
2019-01-04T06:34:30.537Z,18.76
2019-01-04T06:35:30.493Z,18.79
2019-01-04T06:36:30.835Z,18.82
2019-01-04T06:37:30.278Z,18.81
2019-01-04T06:38:30.633Z,18.83
2019-01-04T06:39:30.429Z,18.85
2019-01-04T06:40:30.212Z,18.87
2019-01-04T06:41:30.431Z,18.88
2019-01-04T06:42:30.965Z,18.89
2019-01-04T06:43:30.328Z,18.91
2019-01-04T06:44:31.073Z,18.94
2019-01-04T06:45:30.800Z,18.93
2019-01-04T06:46:30.156Z,18.95
2019-01-04T06:47:30.049Z,18.95
2019-01-04T06:48:30.230Z,18.94
2019-01-04T06:49:30.251Z,18.96
2019-01-04T06:50:30.389Z,18.96
2019-01-04T06:51:30.088Z,18.97
2019-01-04T06:52:30.210Z,18.95
2019-01-04T06:53:30.411Z,18.96
2019-01-04T06:54:30.316Z,18.97
2019-01-04T06:55:29.933Z,18.98
2019-01-04T06:56:30.161Z,19
2019-01-04T06:57:29.986Z,18.99
2019-01-04T06:58:30.075Z,18.97
2019-01-04T06:59:30.550Z,18.96
2019-01-04T07:00:29.915Z,19
2019-01-04T07:01:30.359Z,19
2019-01-04T07:02:30.200Z,19
2019-01-04T07:03:30.255Z,18.98
2019-01-04T07:04:30.693Z,18.99
2019-01-04T07:05:29.880Z,18.99
2019-01-04T07:06:30.235Z,18.98
2019-01-04T07:07:30.155Z,18.99
2019-01-04T07:08:30.442Z,18.99
2019-01-04T07:09:30.508Z,18.98
2019-01-04T07:10:30.241Z,18.98
2019-01-04T07:11:30.033Z,18.98
2019-01-04T07:12:30.662Z,18.98
2019-01-04T07:13:30.075Z,18.98
2019-01-04T07:14:30.065Z,18.98
2019-01-04T07:15:29.955Z,18.96
2019-01-04T07:16:30.258Z,18.97
2019-01-04T07:17:30.404Z,18.96
2019-01-04T07:18:30.001Z,18.97
2019-01-04T07:19:30.196Z,18.96
2019-01-04T07:20:29.870Z,18.97
2019-01-04T07:21:30.039Z,18.94
2019-01-04T07:22:30.300Z,18.96
2019-01-04T07:23:30.249Z,18.94
2019-01-04T07:24:29.989Z,18.93
2019-01-04T07:25:30.173Z,18.92
2019-01-04T07:26:30.090Z,18.94
2019-01-04T07:27:30.421Z,18.92
2019-01-04T07:28:29.950Z,18.89
2019-01-04T07:29:29.975Z,18.91
2019-01-04T07:30:30.675Z,18.89
2019-01-04T07:31:30.294Z,18.89
2019-01-04T07:32:30.329Z,18.88
2019-01-04T07:33:30.392Z,18.88
2019-01-04T07:34:30.051Z,18.87
2019-01-04T07:35:30.947Z,18.87
2019-01-04T07:36:30.264Z,18.84
2019-01-04T07:37:30.599Z,18.85
2019-01-04T07:38:30.841Z,18.84
2019-01-04T07:39:30.845Z,18.85
2019-01-04T07:40:30.107Z,18.85
2019-01-04T07:41:30.932Z,18.83
2019-01-04T07:42:30.335Z,18.81
2019-01-04T07:43:30.125Z,18.82
2019-01-04T07:44:30.446Z,18.81
2019-01-04T07:45:30.125Z,18.81
2019-01-04T07:46:30.218Z,18.81
2019-01-04T07:47:30.369Z,18.81
2019-01-04T07:48:30.397Z,18.79
2019-01-04T07:49:30.197Z,18.78
2019-01-04T07:50:30.957Z,18.77
2019-01-04T07:51:30.179Z,18.79
2019-01-04T07:52:30.410Z,18.76
2019-01-04T07:53:30.122Z,18.76
2019-01-04T07:54:31.542Z,18.74
2019-01-04T07:55:30.213Z,18.73
2019-01-04T07:56:30.179Z,18.72
2019-01-04T07:57:29.957Z,18.72
2019-01-04T07:58:30.111Z,18.7
2019-01-04T07:59:30.203Z,18.69
2019-01-04T08:00:30.371Z,18.71
2019-01-04T08:01:30.084Z,18.69
2019-01-04T08:02:30.439Z,18.69
2019-01-04T08:03:30.520Z,18.67
2019-01-04T08:04:30.209Z,18.67
2019-01-04T08:05:30.290Z,18.67
2019-01-04T08:06:30.106Z,18.66
2019-01-04T08:07:30.299Z,18.66
2019-01-04T08:08:30.120Z,18.65
2019-01-04T08:09:30.517Z,18.65
2019-01-04T08:10:29.991Z,18.63
2019-01-04T08:11:30.404Z,18.63
2019-01-04T08:12:30.073Z,18.63
2019-01-04T08:13:30.269Z,18.62
2019-01-04T08:14:30.344Z,18.61
2019-01-04T08:15:30.275Z,18.59
2019-01-04T08:16:30.434Z,18.59
2019-01-04T08:17:30.260Z,18.61
2019-01-04T08:18:30.030Z,18.59
2019-01-04T08:19:30.459Z,18.58
2019-01-04T08:20:29.905Z,18.57
2019-01-04T08:21:30.139Z,18.58
2019-01-04T08:22:30.153Z,18.57
2019-01-04T08:23:30.109Z,18.57
2019-01-04T08:24:30.250Z,18.55
2019-01-04T08:25:30.098Z,18.55
2019-01-04T08:26:30.276Z,18.53
2019-01-04T08:27:30.120Z,18.54
2019-01-04T08:28:29.860Z,18.54
2019-01-04T08:29:30.556Z,18.53
2019-01-04T08:30:30.275Z,18.51
2019-01-04T08:31:30.193Z,18.53
2019-01-04T08:32:30.990Z,18.51
2019-01-04T08:33:29.878Z,18.52
2019-01-04T08:34:30.871Z,18.51
2019-01-04T08:35:30.755Z,18.51
2019-01-04T08:36:29.967Z,18.51
2019-01-04T08:37:30.179Z,18.51
2019-01-04T08:38:29.767Z,18.5
2019-01-04T08:39:30.009Z,18.49
2019-01-04T08:40:30.204Z,18.49
2019-01-04T08:41:30.259Z,18.5
2019-01-04T08:42:30.381Z,18.49
2019-01-04T08:43:29.915Z,18.48
2019-01-04T08:44:30.083Z,18.46
2019-01-04T08:45:31.178Z,18.46
2019-01-04T08:46:30.304Z,18.47
2019-01-04T08:47:30.519Z,18.47
2019-01-04T08:48:30.314Z,18.47
2019-01-04T08:49:30.734Z,18.46
2019-01-04T08:50:30.551Z,18.48
2019-01-04T08:51:30.810Z,18.46
2019-01-04T08:52:30.468Z,18.47
2019-01-04T08:53:30.169Z,18.48
2019-01-04T08:54:30.210Z,18.46
2019-01-04T08:55:30.134Z,18.43
2019-01-04T08:56:29.966Z,18.44
2019-01-04T08:57:29.950Z,18.44
2019-01-04T08:58:30.202Z,18.46
2019-01-04T08:59:30.132Z,18.48
2019-01-04T09:00:30.418Z,18.44
2019-01-04T09:01:30.126Z,18.43
2019-01-04T09:02:30.104Z,18.44
2019-01-04T09:03:30.001Z,18.42
2019-01-04T09:04:29.982Z,18.44
2019-01-04T09:05:30.010Z,18.44
2019-01-04T09:06:30.192Z,18.43
2019-01-04T09:07:30.300Z,18.43
2019-01-04T09:08:30.141Z,18.41
2019-01-04T09:09:29.896Z,18.42
2019-01-04T09:10:30.028Z,18.44
2019-01-04T09:11:30.302Z,18.41
2019-01-04T09:12:30.079Z,18.41
2019-01-04T09:13:30.049Z,18.43
2019-01-04T09:14:30.151Z,18.41
2019-01-04T09:15:29.939Z,18.41
2019-01-04T09:16:30.068Z,18.42
2019-01-04T09:17:30.204Z,18.43
2019-01-04T09:18:29.941Z,18.42
2019-01-04T09:19:30.437Z,18.43
2019-01-04T09:20:29.998Z,18.41
2019-01-04T09:21:30.371Z,18.42
2019-01-04T09:22:30.519Z,18.41
2019-01-04T09:23:30.656Z,18.42
2019-01-04T09:24:30.371Z,18.42
2019-01-04T09:25:30.106Z,18.41
2019-01-04T09:26:30.117Z,18.42
2019-01-04T09:27:30.139Z,18.41
2019-01-04T09:28:30.078Z,18.43
2019-01-04T09:29:30.217Z,18.43
2019-01-04T09:30:30.584Z,18.42
2019-01-04T09:31:30.307Z,18.43
2019-01-04T09:32:31.249Z,18.44
2019-01-04T09:33:30.327Z,18.44
2019-01-04T09:34:30.070Z,18.43
2019-01-04T09:35:29.987Z,18.43
2019-01-04T09:36:30.101Z,18.43
2019-01-04T09:37:29.983Z,18.42
2019-01-04T09:38:30.299Z,18.42
2019-01-04T09:39:30.405Z,18.44
2019-01-04T09:40:29.983Z,18.43
2019-01-04T09:41:30.414Z,18.44
2019-01-04T09:42:30.113Z,18.43
2019-01-04T09:43:29.936Z,18.43
2019-01-04T09:44:30.105Z,18.44
2019-01-04T09:45:30.331Z,18.43
2019-01-04T09:46:31.371Z,18.44
2019-01-04T09:47:30.494Z,18.42
2019-01-04T09:48:30.340Z,18.42
2019-01-04T09:49:30.236Z,18.44
2019-01-04T09:50:30.259Z,18.42
2019-01-04T09:51:30.215Z,18.42
2019-01-04T09:52:30.194Z,18.44
2019-01-04T09:53:29.965Z,18.44
2019-01-04T09:54:30.549Z,18.43
2019-01-04T09:55:30.389Z,18.41
2019-01-04T09:56:30.759Z,18.43
2019-01-04T09:57:30.525Z,18.44
2019-01-04T09:58:29.945Z,18.44
2019-01-04T09:59:29.981Z,18.46
2019-01-04T10:00:30.441Z,18.44
2019-01-04T10:01:30.397Z,18.42
2019-01-04T10:02:30.370Z,18.42
2019-01-04T10:03:29.988Z,18.44
2019-01-04T10:04:30.374Z,18.44
2019-01-04T10:05:31.010Z,18.41
2019-01-04T10:06:30.281Z,18.42
2019-01-04T10:07:30.583Z,18.43
2019-01-04T10:08:30.089Z,18.43
2019-01-04T10:09:29.940Z,18.43
2019-01-04T10:10:30.431Z,18.42
2019-01-04T10:11:30.206Z,18.43
2019-01-04T10:12:30.242Z,18.41
2019-01-04T10:13:30.472Z,18.44
2019-01-04T10:14:30.911Z,18.42
2019-01-04T10:15:30.162Z,18.43
2019-01-04T10:16:30.350Z,18.42
2019-01-04T10:17:30.264Z,18.43
2019-01-04T10:18:29.863Z,18.42
2019-01-04T10:19:30.250Z,18.41
2019-01-04T10:20:30.439Z,18.43
2019-01-04T10:21:30.890Z,18.41
2019-01-04T10:22:29.922Z,18.42
2019-01-04T10:23:30.102Z,18.43
2019-01-04T10:24:30.132Z,18.4
2019-01-04T10:25:30.191Z,18.41
2019-01-04T10:26:29.821Z,18.39
2019-01-04T10:27:30.298Z,18.4
2019-01-04T10:28:30.266Z,18.39
2019-01-04T10:29:30.210Z,18.39
2019-01-04T10:30:30.350Z,18.38
2019-01-04T10:31:30.377Z,18.38
2019-01-04T10:32:29.980Z,18.4
2019-01-04T10:33:30.372Z,18.37
2019-01-04T10:34:30.852Z,18.4
2019-01-04T10:35:30.162Z,18.38
2019-01-04T10:36:30.012Z,18.36
2019-01-04T10:37:30.337Z,18.37
2019-01-04T10:38:30.090Z,18.38
2019-01-04T10:39:30.110Z,18.36
2019-01-04T10:40:30.443Z,18.37
2019-01-04T10:41:30.005Z,18.37
2019-01-04T10:42:29.953Z,18.37
2019-01-04T10:43:30.282Z,18.36
2019-01-04T10:44:30.220Z,18.37
2019-01-04T10:45:29.951Z,18.37
2019-01-04T10:46:30.148Z,18.37
2019-01-04T10:47:30.547Z,18.36
2019-01-04T10:48:30.214Z,18.36
2019-01-04T10:49:29.897Z,18.35
2019-01-04T10:50:30.053Z,18.36
2019-01-04T10:51:29.916Z,18.34
2019-01-04T10:52:30.063Z,18.35
2019-01-04T10:53:30.405Z,18.33
2019-01-04T10:54:30.082Z,18.34
2019-01-04T10:55:30.059Z,18.34
2019-01-04T10:56:29.799Z,18.35
2019-01-04T10:57:30.156Z,18.34
2019-01-04T10:58:30.121Z,18.33
2019-01-04T10:59:29.862Z,18.33
2019-01-04T11:00:30.021Z,18.33
2019-01-04T11:01:30.162Z,18.34
2019-01-04T11:02:30.022Z,18.33
2019-01-04T11:03:30.257Z,18.33
2019-01-04T11:04:29.903Z,18.35
2019-01-04T11:05:30.003Z,18.37
2019-01-04T11:06:30.093Z,18.33
2019-01-04T11:07:30.376Z,18.32
2019-01-04T11:08:30.009Z,18.32
2019-01-04T11:09:29.925Z,18.32
2019-01-04T11:10:29.980Z,18.32
2019-01-04T11:11:30.000Z,18.3
2019-01-04T11:12:30.321Z,18.29
2019-01-04T11:13:29.987Z,18.32
2019-01-04T11:14:29.908Z,18.3
2019-01-04T11:15:29.964Z,18.29
2019-01-04T11:16:30.577Z,18.29
2019-01-04T11:17:30.390Z,18.32
2019-01-04T11:18:30.214Z,18.3
2019-01-04T11:19:30.181Z,18.3
2019-01-04T11:20:30.192Z,18.29
2019-01-04T11:21:30.014Z,18.28
2019-01-04T11:22:30.433Z,18.3
2019-01-04T11:23:30.056Z,18.29
2019-01-04T11:24:30.634Z,18.3
2019-01-04T11:25:29.965Z,18.3
2019-01-04T11:26:30.462Z,18.3
2019-01-04T11:27:30.047Z,18.29
2019-01-04T11:28:30.322Z,18.29
2019-01-04T11:29:30.371Z,18.29
2019-01-04T11:30:29.932Z,18.29
2019-01-04T11:31:30.438Z,18.32
2019-01-04T11:32:29.903Z,18.27
2019-01-04T11:33:30.128Z,18.27
2019-01-04T11:34:30.462Z,18.29
2019-01-04T11:35:30.179Z,18.29
2019-01-04T11:36:30.081Z,18.28
2019-01-04T11:37:30.095Z,18.27
2019-01-04T11:38:30.110Z,18.29
2019-01-04T11:39:30.060Z,18.28
2019-01-04T11:40:30.559Z,18.29
2019-01-04T11:41:30.754Z,18.27
2019-01-04T11:42:30.444Z,18.28
2019-01-04T11:43:29.867Z,18.27
2019-01-04T11:44:30.131Z,18.28
2019-01-04T11:45:29.889Z,18.27
2019-01-04T11:46:30.133Z,18.27
2019-01-04T11:47:30.259Z,18.27
2019-01-04T11:48:29.871Z,18.27
2019-01-04T11:49:31.790Z,18.28
2019-01-04T11:50:30.194Z,18.29
2019-01-04T11:51:30.815Z,18.28
2019-01-04T11:52:31.577Z,18.28
2019-01-04T11:53:30.096Z,18.28
2019-01-04T11:54:30.103Z,18.27
2019-01-04T11:55:30.741Z,18.29
2019-01-04T11:56:29.963Z,18.3
2019-01-04T11:57:30.139Z,18.28
2019-01-04T11:58:29.894Z,18.28
2019-01-04T11:59:30.017Z,18.27
2019-01-04T12:00:30.420Z,18.27
2019-01-04T12:01:30.418Z,18.29
2019-01-04T12:02:30.039Z,18.28
2019-01-04T12:03:29.871Z,18.27
2019-01-04T12:04:29.975Z,18.28
2019-01-04T12:05:30.192Z,18.28
2019-01-04T12:06:30.277Z,18.26
2019-01-04T12:07:30.208Z,18.28
2019-01-04T12:08:30.336Z,18.25
2019-01-04T12:09:30.216Z,18.29
2019-01-04T12:10:30.671Z,18.25
2019-01-04T12:11:29.761Z,18.28
2019-01-04T12:12:30.160Z,18.27
2019-01-04T12:13:30.250Z,18.25
2019-01-04T12:14:29.790Z,18.27
2019-01-04T12:15:30.242Z,18.26
2019-01-04T12:16:29.878Z,18.25
2019-01-04T12:17:30.218Z,18.27
2019-01-04T12:18:30.963Z,18.27
2019-01-04T12:19:30.422Z,18.27
2019-01-04T12:20:30.203Z,18.26
2019-01-04T12:21:30.435Z,18.27
2019-01-04T12:22:30.274Z,18.27
2019-01-04T12:23:30.583Z,18.27
2019-01-04T12:24:29.959Z,18.27
2019-01-04T12:25:30.363Z,18.27
2019-01-04T12:26:29.857Z,18.26
2019-01-04T12:27:29.990Z,18.26
2019-01-04T12:28:29.930Z,18.26
2019-01-04T12:29:29.964Z,18.27
2019-01-04T12:30:30.061Z,18.26
2019-01-04T12:31:30.120Z,18.25
2019-01-04T12:32:29.874Z,18.26
2019-01-04T12:33:30.204Z,18.26
2019-01-04T12:34:30.005Z,18.25
2019-01-04T12:35:29.954Z,18.27
2019-01-04T12:36:30.354Z,18.26
2019-01-04T12:37:30.236Z,18.25
2019-01-04T12:38:30.034Z,18.26
2019-01-04T12:39:29.798Z,18.25
2019-01-04T12:40:29.844Z,18.26
2019-01-04T12:41:30.388Z,18.27
2019-01-04T12:42:29.892Z,18.26
2019-01-04T12:43:30.015Z,18.26
2019-01-04T12:44:29.796Z,18.26
2019-01-04T12:45:30.376Z,18.25
2019-01-04T12:46:30.311Z,18.24
2019-01-04T12:47:30.736Z,18.25
2019-01-04T12:48:30.029Z,18.25
2019-01-04T12:49:30.496Z,18.26
2019-01-04T12:50:29.973Z,18.26
2019-01-04T12:51:30.269Z,18.25
2019-01-04T12:52:29.953Z,18.24
2019-01-04T12:53:30.329Z,18.26
2019-01-04T12:54:30.252Z,18.25
2019-01-04T12:55:30.195Z,18.26